Time;durP1;ratioP1;P1;durP2;ratioP2;P2;SDS_P1;SDS_P2;PMS_P1;PMS_P2;Temp;Humidity;BMP_temperature;BMP_pressure;BME280_temperature;BME280_humidity;BME280_pressure;Samples;Min_cycle;Max_cycle;Signal;HPM_P1;HPM_P2
2023/01/07 00:00:31;;;;;;;15.05;10.93;;;;;;;12.72;100.00;101917.53;2100658;28;20086;-74
2023/01/07 00:01:54;;;;;;;21.75;13.80;;;;;;;12.72;100.00;101909.59;2088058;28;20056;-74
2023/01/07 00:03:15;;;;;;;20.55;14.57;;;;;;;12.74;100.00;101909.59;2099168;28;20048;-75
2023/01/07 00:04:39;;;;;;;19.48;13.75;;;;;;;12.74;100.00;101909.59;2095241;28;20508;-74
2023/01/07 00:06:03;;;;;;;20.63;14.00;;;;;;;12.73;100.00;101913.13;2093466;28;20123;-74
2023/01/07 00:07:26;;;;;;;17.77;14.02;;;;;;;12.71;100.00;101910.44;2092297;28;20048;-74
2023/01/07 00:08:50;;;;;;;17.98;14.10;;;;;;;12.69;100.00;101912.13;2091473;28;20393;-75
2023/01/07 00:10:13;;;;;;;15.77;12.57;;;;;;;12.66;100.00;101912.06;2086241;28;20424;-75
2023/01/07 00:11:36;;;;;;;18.35;14.27;;;;;;;12.61;100.00;101911.03;2084472;28;20518;-74
2023/01/07 00:12:59;;;;;;;16.52;12.27;;;;;;;12.57;100.00;101905.63;2092752;28;20062;-75
2023/01/07 00:14:21;;;;;;;16.92;11.55;;;;;;;12.52;100.00;101910.81;2087246;28;20041;-75
2023/01/07 00:15:43;;;;;;;16.35;11.93;;;;;;;12.49;100.00;101905.44;2085441;28;20164;-75
2023/01/07 00:17:05;;;;;;;15.77;11.88;;;;;;;12.46;100.00;101904.47;2082650;28;20044;-75
2023/01/07 00:18:28;;;;;;;16.45;12.63;;;;;;;12.45;100.00;101902.66;2092776;28;20045;-75
2023/01/07 00:19:52;;;;;;;16.92;11.57;;;;;;;12.46;100.00;101901.81;2085670;28;20056;-75
2023/01/07 00:21:17;;;;;;;15.93;11.52;;;;;;;12.45;100.00;101895.63;2085521;28;20482;-75
2023/01/07 00:22:39;;;;;;;20.05;15.23;;;;;;;12.45;100.00;101894.72;2098785;28;20048;-75
2023/01/07 00:24:04;;;;;;;23.45;16.83;;;;;;;12.49;100.00;101899.22;2087689;28;20123;-75
2023/01/07 00:25:26;;;;;;;17.77;13.57;;;;;;;12.52;100.00;101896.69;2090773;28;20048;-75
2023/01/07 00:26:49;;;;;;;19.88;14.20;;;;;;;12.54;100.00;101898.50;2076774;28;20045;-75
2023/01/07 00:28:10;;;;;;;18.55;13.88;;;;;;;12.58;100.00;101896.84;2085181;28;20036;-75
2023/01/07 00:29:32;;;;;;;22.20;16.95;;;;;;;12.59;100.00;101895.97;2085333;28;20060;-75
2023/01/07 00:30:58;;;;;;;21.40;14.88;;;;;;;12.64;100.00;101897.88;2079587;28;20041;-75
2023/01/07 00:32:41;;;;;;;18.90;14.02;;;;;;;12.66;100.00;101904.13;2090881;28;20049;-76
2023/01/07 00:34:06;;;;;;;17.30;13.30;;;;;;;12.67;100.00;101903.25;2095760;28;20079;-75
2023/01/07 00:35:30;;;;;;;16.85;12.10;;;;;;;12.71;100.00;101896.28;2087937;28;20053;-75
2023/01/07 00:37:16;;;;;;;15.65;11.95;;;;;;;12.72;100.00;101901.63;2092569;28;20132;-75
2023/01/07 00:38:33;;;;;;;;;;;;;;;12.66;100.00;101892.63;2089586;28;20045;-74
2023/01/07 00:39:56;;;;;;;23.05;13.55;;;;;;;12.65;100.00;101894.38;2094356;28;19928;-75
2023/01/07 00:41:18;;;;;;;17.85;12.57;;;;;;;12.64;100.00;101891.69;2094040;28;20478;-75
2023/01/07 00:42:55;;;;;;;17.50;12.80;;;;;;;12.60;100.00;101889.84;2097452;28;20032;-75
2023/01/07 00:44:18;;;;;;;20.70;15.38;;;;;;;12.53;100.00;101888.78;2097692;28;20048;-74
2023/01/07 00:45:40;;;;;;;19.23;14.68;;;;;;;12.48;100.00;101898.34;2089431;28;20045;-75
2023/01/07 00:47:03;;;;;;;20.00;15.32;;;;;;;12.43;100.00;101891.13;2094843;28;20045;-75
2023/01/07 00:48:24;;;;;;;15.48;12.30;;;;;;;12.37;100.00;101890.13;2089355;28;20068;-75
2023/01/07 00:49:47;;;;;;;16.65;11.77;;;;;;;12.30;100.00;101885.53;2096763;28;20056;-75
2023/01/07 00:51:12;;;;;;;15.55;11.77;;;;;;;12.25;100.00;101892.44;2064766;28;20042;-74
2023/01/07 00:52:35;;;;;;;13.75;9.95;;;;;;;12.22;100.00;101886.16;2082640;28;20071;-75
2023/01/07 00:53:57;;;;;;;15.88;11.05;;;;;;;12.19;100.00;101894.94;2080906;28;20171;-75
2023/01/07 00:55:19;;;;;;;19.55;11.70;;;;;;;12.13;100.00;101894.78;2092050;28;20052;-75
2023/01/07 00:56:41;;;;;;;13.95;10.23;;;;;;;12.11;100.00;101888.53;2094593;28;20413;-75
2023/01/07 00:58:05;;;;;;;14.57;11.10;;;;;;;12.12;100.00;101894.72;2103618;28;20040;-75
2023/01/07 00:59:26;;;;;;;13.77;10.80;;;;;;;12.11;100.00;101892.91;2096749;28;20156;-75
2023/01/07 01:00:49;;;;;;;15.32;10.85;;;;;;;12.12;100.00;101894.72;2086740;28;20103;-74
2023/01/07 01:02:10;;;;;;;14.57;11.30;;;;;;;12.14;100.00;101898.31;2078563;28;20044;-75
2023/01/07 01:03:33;;;;;;;14.63;11.15;;;;;;;12.16;100.00;101894.84;2102632;28;20383;-75
2023/01/07 01:04:54;;;;;;;16.10;11.15;;;;;;;12.18;100.00;101895.78;2096449;28;20037;-75
2023/01/07 01:06:18;;;;;;;14.27;10.45;;;;;;;12.19;100.00;101886.09;2094802;28;20049;-75
2023/01/07 01:07:39;;;;;;;14.52;10.63;;;;;;;12.21;100.00;101889.66;2089159;28;20048;-76
2023/01/07 01:09:02;;;;;;;15.65;11.13;;;;;;;12.19;100.00;101889.63;2093105;28;20123;-75
2023/01/07 01:10:25;;;;;;;15.98;11.50;;;;;;;12.21;100.00;101884.34;2097474;28;20036;-75
2023/01/07 01:11:46;;;;;;;16.05;11.15;;;;;;;12.22;100.00;101886.16;2089062;28;20637;-75
2023/01/07 01:13:12;;;;;;;15.18;10.55;;;;;;;12.21;100.00;101882.63;2085685;28;20041;-75
2023/01/07 01:14:35;;;;;;;16.00;11.18;;;;;;;12.23;100.00;101885.31;2094394;28;20078;-75
2023/01/07 01:15:57;;;;;;;13.45;11.00;;;;;;;12.25;100.00;101881.84;2088772;28;20066;-75
2023/01/07 01:17:20;;;;;;;14.43;11.35;;;;;;;12.30;100.00;101879.31;2089696;28;20060;-75
2023/01/07 01:18:44;;;;;;;15.50;11.75;;;;;;;12.33;100.00;101885.63;2080693;28;20132;-75
2023/01/07 01:20:07;;;;;;;15.55;11.10;;;;;;;12.39;100.00;101882.22;2099643;28;20515;-75
2023/01/07 01:21:31;;;;;;;15.32;10.43;;;;;;;12.42;100.00;101884.94;2096751;28;20155;-75
2023/01/07 01:22:52;;;;;;;14.90;10.43;;;;;;;12.46;100.00;101875.34;2095509;28;20044;-75
2023/01/07 01:24:15;;;;;;;15.93;11.30;;;;;;;12.48;100.00;101879.78;2087388;28;20040;-75
2023/01/07 01:25:37;;;;;;;15.18;11.07;;;;;;;12.53;100.00;101879.94;2086436;28;20064;-75
2023/01/07 01:27:00;;;;;;;15.20;11.25;;;;;;;12.57;100.00;101880.03;2083664;28;20390;-74
2023/01/07 01:28:23;;;;;;;15.25;11.38;;;;;;;12.64;100.00;101881.09;2094417;28;20053;-75
2023/01/07 01:29:44;;;;;;;14.32;11.20;;;;;;;12.67;100.00;101876.75;2088952;28;20091;-74
2023/01/07 01:31:08;;;;;;;20.77;15.90;;;;;;;12.68;100.00;101870.59;2091183;28;20095;-74
2023/01/07 01:32:41;;;;;;;18.10;11.70;;;;;;;12.70;100.00;101875.94;2102090;28;20044;-75
2023/01/07 01:34:02;;;;;;;15.50;11.80;;;;;;;12.70;100.00;101879.50;2083486;28;20057;-74
2023/01/07 01:35:25;;;;;;;17.35;12.02;;;;;;;12.69;100.00;101872.41;2088149;28;20083;-74
2023/01/07 01:36:48;;;;;;;14.25;10.60;;;;;;;12.69;100.00;101869.75;2094552;28;20840;-74
2023/01/07 01:38:11;;;;;;;13.77;10.25;;;;;;;12.67;100.00;101867.91;2094125;28;20182;-74
2023/01/07 01:39:34;;;;;;;12.57;9.38;;;;;;;12.65;100.00;101870.53;2094340;28;20049;-75
2023/01/07 01:40:55;;;;;;;13.43;9.95;;;;;;;12.64;100.00;101865.19;2088810;28;20146;-76
2023/01/07 01:42:22;;;;;;;14.55;10.02;;;;;;;12.64;100.00;101865.19;2093866;28;20056;-75
2023/01/07 01:43:44;;;;;;;13.38;9.52;;;;;;;12.65;100.00;101859.94;2088652;28;20554;-74
2023/01/07 01:45:08;;;;;;;13.65;9.98;;;;;;;12.65;100.00;101859.94;2091908;28;20653;-75
2023/01/07 01:46:38;;;;;;;14.07;9.80;;;;;;;12.68;100.00;101860.00;2086954;28;20501;-75
2023/01/07 01:48:05;;;;;;;13.07;9.80;;;;;;;12.72;100.00;101858.34;2101643;28;20051;-75
2023/01/07 01:49:30;;;;;;;13.23;10.05;;;;;;;12.73;100.00;101858.34;2088920;28;20576;-75
2023/01/07 01:50:53;;;;;;;13.32;9.98;;;;;;;12.75;100.00;101858.41;2084211;28;20207;-75
2023/01/07 01:52:19;;;;;;;12.25;10.02;;;;;;;12.78;100.00;101854.09;2098989;28;20068;-75
2023/01/07 01:53:42;;;;;;;11.48;8.40;;;;;;;12.78;100.00;101851.44;2096804;28;20397;-75
2023/01/07 01:55:06;;;;;;;14.60;10.40;;;;;;;12.80;100.00;101850.59;2088282;28;20044;-74
2023/01/07 01:56:34;;;;;;;13.23;10.10;;;;;;;12.82;100.00;101855.03;2086148;28;20052;-75
2023/01/07 01:58:02;;;;;;;13.85;10.15;;;;;;;12.85;100.00;101849.81;2094177;28;20702;-74
2023/01/07 01:59:27;;;;;;;19.63;13.85;;;;;;;12.88;100.00;101849.00;2080695;28;20073;-75
2023/01/07 02:00:52;;;;;;;24.40;15.30;;;;;;;12.89;100.00;101843.72;2085096;28;20049;-75
2023/01/07 02:02:20;;;;;;;34.65;20.80;;;;;;;12.91;100.00;101841.13;2078107;28;20149;-74
2023/01/07 02:03:44;;;;;;;28.95;18.92;;;;;;;12.95;100.00;101845.63;2086319;28;20049;-75
2023/01/07 02:05:12;;;;;;;21.10;13.52;;;;;;;12.97;100.00;101846.56;2086797;28;20049;-75
2023/01/07 02:06:35;;;;;;;20.83;13.82;;;;;;;12.98;100.00;101837.75;2078093;28;20051;-75
2023/01/07 02:08:00;;;;;;;14.80;10.10;;;;;;;12.97;100.00;101844.81;2099497;28;20052;-75
2023/01/07 02:09:22;;;;;;;13.32;9.38;;;;;;;12.97;100.00;101842.16;2085775;28;20504;-75
2023/01/07 02:10:44;;;;;;;12.90;9.63;;;;;;;12.97;100.00;101838.63;2078293;28;20052;-74
2023/01/07 02:12:15;;;;;;;16.13;10.10;;;;;;;12.98;100.00;101838.66;2091628;28;20045;-74
2023/01/07 02:13:51;;;;;;;13.55;9.57;;;;;;;12.99;100.00;101832.50;2093182;28;20127;-75
2023/01/07 02:15:18;;;;;;;13.02;9.75;;;;;;;13.00;100.00;101833.38;2104770;28;20583;-75
2023/01/07 02:16:50;;;;;;;14.75;9.90;;;;;;;13.01;100.00;101829.84;2088547;28;20143;-75
2023/01/07 02:18:28;;;;;;;12.55;9.52;;;;;;;13.00;100.00;101828.97;2086879;28;20148;-75
2023/01/07 02:20:24;;;;;;;13.82;10.13;;;;;;;13.01;100.00;101830.75;2094635;28;20056;-75
2023/01/07 02:21:56;;;;;;;14.85;10.52;;;;;;;13.03;100.00;101823.75;2095584;28;20161;-75
2023/01/07 02:24:04;;;;;;;13.32;10.40;;;;;;;13.05;100.00;101824.69;2086884;28;20540;-75
2023/01/07 02:25:52;;;;;;;13.18;9.82;;;;;;;13.08;100.00;101826.50;2088246;28;20105;-75
2023/01/07 02:27:46;;;;;;;12.23;9.98;;;;;;;13.12;100.00;101825.72;2093856;28;20568;-75
2023/01/07 02:29:47;;;;;;;13.18;9.18;;;;;;;13.13;100.00;101822.22;2076450;28;20053;-75
2023/01/07 02:31:36;;;;;;;13.02;9.57;;;;;;;13.13;100.00;101822.22;2066818;28;20048;-75
2023/01/07 02:33:47;;;;;;;13.82;9.85;;;;;;;13.11;100.00;101819.53;2087618;28;20508;-75
2023/01/07 02:35:24;;;;;;;12.00;9.25;;;;;;;13.12;100.00;101815.13;2079420;28;20041;-75
2023/01/07 02:36:51;;;;;;;26.25;17.98;;;;;;;13.12;100.00;101817.75;2087198;28;20052;-75
2023/01/07 02:38:24;;;;;;;16.55;11.05;;;;;;;13.12;100.00;101805.44;2093049;28;20056;-74
2023/01/07 02:39:57;;;;;;;17.92;12.07;;;;;;;13.14;100.00;101808.09;2087638;28;20053;-74
2023/01/07 02:41:27;;;;;;;30.80;18.00;;;;;;;13.16;100.00;101807.28;2078066;28;20049;-75
2023/01/07 02:43:04;;;;;;;13.20;10.35;;;;;;;13.18;100.00;101799.38;2085077;28;20131;-75
2023/01/07 02:44:35;;;;;;;16.88;11.73;;;;;;;13.19;100.00;101800.28;2094169;28;20048;-75
2023/01/07 02:46:05;;;;;;;19.20;11.85;;;;;;;13.18;100.00;101798.47;2092829;28;20507;-75
2023/01/07 02:47:33;;;;;;;18.38;12.55;;;;;;;13.20;100.00;101799.38;2086930;28;20049;-75
2023/01/07 02:49:00;;;;;;;24.15;18.40;;;;;;;13.19;100.00;101798.50;2084008;28;20040;-74
2023/01/07 02:50:27;;;;;;;41.45;31.38;;;;;;;13.15;100.00;101792.22;2083506;28;20063;-74
2023/01/07 02:51:48;;;;;;;41.08;27.73;;;;;;;13.13;100.00;101801.00;2086511;28;20122;-73
2023/01/07 02:53:15;;;;;;;36.03;26.33;;;;;;;13.12;100.00;101807.16;2079971;28;20271;-74
2023/01/07 02:54:37;;;;;;;26.85;20.85;;;;;;;13.12;100.00;101796.56;2089304;28;20485;-75
2023/01/07 02:56:15;;;;;;;19.15;14.27;;;;;;;13.12;100.00;101802.78;2095747;28;20040;-74
2023/01/07 02:58:07;;;;;;;15.38;11.75;;;;;;;13.10;100.00;101809.75;2088099;28;20091;-75
2023/01/07 02:59:54;;;;;;;15.25;10.70;;;;;;;13.08;100.00;101806.19;2095862;28;20148;-75
2023/01/07 03:01:39;;;;;;;13.23;10.68;;;;;;;13.05;100.00;101810.53;2099770;28;20085;-75
2023/01/07 03:03:20;;;;;;;16.58;10.55;;;;;;;13.04;100.00;101806.97;2095378;28;20094;-74
2023/01/07 03:05:04;;;;;;;15.45;10.77;;;;;;;13.06;100.00;101807.03;2078907;28;20440;-74
2023/01/07 03:06:42;;;;;;;14.43;10.35;;;;;;;13.06;100.00;101805.25;2088554;28;20067;-75
2023/01/07 03:08:17;;;;;;;15.85;10.48;;;;;;;13.05;100.00;101806.13;2094676;28;20143;-74
2023/01/07 03:09:48;;;;;;;14.88;10.65;;;;;;;13.02;100.00;101805.16;2095453;28;20464;-75
2023/01/07 03:11:12;;;;;;;14.05;9.82;;;;;;;12.99;100.00;101806.00;2079936;28;20098;-74
2023/01/07 03:12:38;;;;;;;15.00;10.82;;;;;;;12.97;100.00;101801.50;2085617;28;20528;-75
2023/01/07 03:14:07;;;;;;;13.95;10.43;;;;;;;12.94;100.00;101812.03;2086367;28;20132;-74
2023/01/07 03:15:37;;;;;;;14.23;9.75;;;;;;;12.87;100.00;101803.03;2093511;28;20048;-74
2023/01/07 03:17:03;;;;;;;14.55;10.35;;;;;;;12.82;100.00;101803.78;2094729;28;20470;-75
2023/01/07 03:18:29;;;;;;;12.15;9.63;;;;;;;12.74;100.00;101809.81;2093793;28;20059;-75
2023/01/07 03:19:58;;;;;;;13.45;9.95;;;;;;;12.67;100.00;101805.22;2093378;28;20051;-75
2023/01/07 03:21:22;;;;;;;13.82;9.93;;;;;;;12.61;100.00;101809.47;2085832;28;20057;-75
2023/01/07 03:22:48;;;;;;;14.15;10.10;;;;;;;12.57;100.00;101811.16;2086832;28;20037;-74
2023/01/07 03:24:14;;;;;;;15.77;11.05;;;;;;;12.53;100.00;101816.38;2087391;28;20110;-74
2023/01/07 03:25:42;;;;;;;14.10;10.52;;;;;;;12.47;100.00;101811.78;2099133;28;20044;-74
2023/01/07 03:27:06;;;;;;;13.68;10.68;;;;;;;12.43;100.00;101806.38;2087815;28;20048;-74
2023/01/07 03:28:34;;;;;;;13.48;10.77;;;;;;;12.40;100.00;101807.22;2091532;28;20106;-75
2023/01/07 03:29:57;;;;;;;15.65;10.88;;;;;;;12.39;100.00;101813.38;2086131;28;20131;-75
2023/01/07 03:31:21;;;;;;;17.73;12.38;;;;;;;12.37;100.00;101812.44;2091152;28;20040;-75
2023/01/07 03:32:50;;;;;;;17.02;11.48;;;;;;;12.36;100.00;101811.53;2085467;28;20045;-74
2023/01/07 03:34:19;;;;;;;15.32;11.75;;;;;;;12.37;100.00;101815.97;2084961;28;20049;-75
2023/01/07 03:35:48;;;;;;;27.38;16.58;;;;;;;12.36;100.00;101810.63;2084941;28;20064;-75
2023/01/07 03:37:13;;;;;;;24.65;18.27;;;;;;;12.37;100.00;101821.28;2091612;28;20150;-74
2023/01/07 03:38:41;;;;;;;21.83;16.42;;;;;;;12.36;100.00;101813.28;2085005;28;20057;-75
2023/01/07 03:40:08;;;;;;;19.15;14.02;;;;;;;12.33;100.00;101807.94;2101207;28;20507;-75
2023/01/07 03:43:13;;;;;;;18.65;13.40;;;;;;;12.27;100.00;101821.00;2094618;28;20110;-75
2023/01/07 03:44:36;;;;;;;18.10;13.77;;;;;;;12.26;100.00;101811.28;2091873;28;20052;-75
2023/01/07 03:46:00;;;;;;;19.25;12.43;;;;;;;12.26;100.00;101821.88;2093090;28;20048;-75
2023/01/07 03:47:24;;;;;;;16.45;11.63;;;;;;;12.26;100.00;101821.88;2078816;28;20052;-75
2023/01/07 03:48:46;;;;;;;18.00;12.85;;;;;;;12.23;100.00;101820.03;2091346;28;20131;-75
2023/01/07 03:50:10;;;;;;;16.95;11.82;;;;;;;12.22;100.00;101817.31;2088567;28;20044;-74
2023/01/07 03:51:36;;;;;;;16.40;11.27;;;;;;;12.19;100.00;101823.47;2078042;28;20414;-75
2023/01/07 03:52:58;;;;;;;18.88;12.68;;;;;;;12.17;100.00;101827.81;2082417;28;20053;-74
2023/01/07 03:54:23;;;;;;;15.70;11.50;;;;;;;12.19;100.00;101834.03;2087588;28;20041;-75
2023/01/07 03:55:44;;;;;;;17.23;12.40;;;;;;;12.19;100.00;101831.41;2085822;28;20049;-75
2023/01/07 03:57:07;;;;;;;15.20;11.35;;;;;;;12.18;100.00;101823.41;2082482;28;20052;-75
2023/01/07 03:58:29;;;;;;;15.32;11.68;;;;;;;12.17;100.00;101832.19;2079745;28;20143;-75
2023/01/07 03:59:51;;;;;;;17.08;11.15;;;;;;;12.19;100.00;101830.50;2098303;28;20413;-75
2023/01/07 04:01:12;;;;;;;17.15;11.50;;;;;;;12.25;100.00;101828.00;2087420;28;20049;-75
2023/01/07 04:02:35;;;;;;;15.95;11.73;;;;;;;12.30;100.00;101832.56;2098171;28;20052;-75
2023/01/07 04:03:57;;;;;;;16.05;11.88;;;;;;;12.35;100.00;101830.91;2087201;28;20697;-74
2023/01/07 04:05:20;;;;;;;18.17;11.85;;;;;;;12.41;100.00;101831.94;2090952;28;20044;-75
2023/01/07 04:06:42;;;;;;;16.00;11.80;;;;;;;12.43;100.00;101836.41;2088337;28;20575;-75
2023/01/07 04:08:05;;;;;;;17.17;11.50;;;;;;;12.45;100.00;101836.47;2081848;28;20048;-75
2023/01/07 04:09:31;;;;;;;15.38;11.30;;;;;;;12.44;100.00;101835.56;2090562;28;20468;-74
2023/01/07 04:10:54;;;;;;;17.15;12.02;;;;;;;12.44;100.00;101837.31;2088061;28;20521;-74
2023/01/07 04:12:17;;;;;;;19.10;11.43;;;;;;;12.45;100.00;101840.00;2090778;28;20052;-75
2023/01/07 04:13:39;;;;;;;16.60;11.23;;;;;;;12.41;100.00;101835.47;2088705;28;20049;-75
2023/01/07 04:15:03;;;;;;;17.02;11.75;;;;;;;12.36;100.00;101835.38;2087250;28;20041;-74
2023/01/07 04:16:26;;;;;;;18.80;12.60;;;;;;;12.34;100.00;101837.06;2084813;28;20057;-74
2023/01/07 04:17:50;;;;;;;18.70;12.52;;;;;;;12.32;100.00;101835.25;2086446;28;20568;-75
2023/01/07 04:19:13;;;;;;;16.15;12.65;;;;;;;12.32;100.00;101832.63;2083591;28;20041;-75
2023/01/07 04:20:36;;;;;;;16.48;12.85;;;;;;;12.33;100.00;101840.59;2086382;28;20155;-75
2023/01/07 04:21:58;;;;;;;21.45;15.65;;;;;;;12.36;100.00;101842.41;2092591;28;20139;-75
2023/01/07 04:23:20;;;;;;;19.45;15.95;;;;;;;12.36;100.00;101839.75;2078918;28;20758;-75
2023/01/07 04:24:46;;;;;;;18.60;13.55;;;;;;;12.36;100.00;101842.41;2092776;28;20052;-75
2023/01/07 04:26:09;;;;;;;18.13;12.20;;;;;;;12.31;100.00;101847.59;2078880;28;20495;-75
2023/01/07 04:27:33;;;;;;;17.67;13.55;;;;;;;12.27;100.00;101844.84;2092919;28;20040;-75
2023/01/07 04:28:55;;;;;;;19.10;12.40;;;;;;;12.24;100.00;101852.69;2096317;28;20123;-75
2023/01/07 04:30:18;;;;;;;18.52;13.02;;;;;;;12.21;100.00;101850.84;2086211;28;20068;-75
2023/01/07 04:31:39;;;;;;;15.60;12.80;;;;;;;12.18;100.00;101847.25;2092344;28;20101;-74
2023/01/07 04:33:03;;;;;;;17.83;12.35;;;;;;;12.12;100.00;101847.97;2078397;28;20069;-75
2023/01/07 04:34:26;;;;;;;18.63;12.75;;;;;;;12.07;100.00;101844.31;2084466;28;20053;-75
2023/01/07 04:35:49;;;;;;;17.15;12.23;;;;;;;12.04;100.00;101849.50;2093320;28;20044;-75
2023/01/07 04:37:13;;;;;;;17.52;11.70;;;;;;;12.02;100.00;101845.91;2087032;28;20045;-74
2023/01/07 04:38:35;;;;;;;17.45;13.32;;;;;;;12.01;100.00;101853.84;2092560;28;20079;-75
2023/01/07 04:39:59;;;;;;;16.38;11.55;;;;;;;11.98;100.00;101855.53;2086660;28;20084;-75
2023/01/07 04:41:21;;;;;;;16.88;12.00;;;;;;;11.91;100.00;101853.56;2088234;28;20049;-75
2023/01/07 04:42:43;;;;;;;16.98;12.80;;;;;;;11.86;100.00;101854.31;2088259;28;20045;-75
2023/01/07 04:44:05;;;;;;;16.15;12.48;;;;;;;11.82;100.00;101858.59;2086870;28;20145;-74
2023/01/07 04:45:29;;;;;;;18.80;13.40;;;;;;;11.79;100.00;101861.19;2091704;28;20105;-75
2023/01/07 04:46:53;;;;;;;16.55;12.88;;;;;;;11.78;100.00;101861.13;2087027;28;20037;-75
2023/01/07 04:48:16;;;;;;;22.00;15.35;;;;;;;11.74;100.00;101869.84;2090540;28;20471;-74
2023/01/07 04:49:38;;;;;;;20.17;13.77;;;;;;;11.68;100.00;101867.88;2088527;28;20033;-75
2023/01/07 04:51:01;;;;;;;22.55;14.32;;;;;;;11.66;100.00;101866.94;2077980;28;20064;-75
2023/01/07 04:52:23;;;;;;;19.73;14.18;;;;;;;11.65;100.00;101870.44;2081204;28;20098;-75
2023/01/07 04:53:47;;;;;;;20.55;14.90;;;;;;;11.68;100.00;101872.28;2091705;28;20127;-75
2023/01/07 04:55:10;;;;;;;18.35;13.15;;;;;;;11.70;100.00;101874.09;2103781;28;20048;-75
2023/01/07 04:56:32;;;;;;;20.83;13.25;;;;;;;11.70;100.00;101873.19;2081324;28;20049;-75
2023/01/07 04:57:54;;;;;;;19.65;13.52;;;;;;;11.71;100.00;101878.53;2091025;28;20131;-75
2023/01/07 04:59:17;;;;;;;19.73;12.90;;;;;;;11.72;100.00;101877.69;2089385;28;20517;-75
2023/01/07 05:00:38;;;;;;;19.42;13.50;;;;;;;11.72;100.00;101872.41;2089241;28;20040;-75
2023/01/07 05:02:01;;;;;;;19.95;12.98;;;;;;;11.71;100.00;101867.97;2086162;28;20059;-74
2023/01/07 05:03:24;;;;;;;19.88;13.25;;;;;;;11.72;100.00;101872.41;2093847;28;20048;-75
2023/01/07 05:04:47;;;;;;;19.70;13.63;;;;;;;11.73;100.00;101873.28;2089462;28;20488;-75
2023/01/07 05:06:12;;;;;;;21.13;14.23;;;;;;;11.70;100.00;101873.19;2092705;28;20049;-75
2023/01/07 05:07:37;;;;;;;17.45;13.82;;;;;;;11.67;100.00;101876.66;2086616;28;20110;-75
2023/01/07 05:09:00;;;;;;;17.65;13.48;;;;;;;11.65;100.00;101878.38;2087195;28;20521;-75
2023/01/07 05:10:23;;;;;;;18.85;13.65;;;;;;;11.63;100.00;101885.34;2095014;28;20042;-75
2023/01/07 05:11:47;;;;;;;17.27;12.82;;;;;;;11.60;100.00;101893.22;2095070;28;20052;-75
2023/01/07 05:13:14;;;;;;;25.25;14.90;;;;;;;11.61;100.00;101888.81;2088625;28;20520;-75
2023/01/07 05:14:36;;;;;;;17.98;13.65;;;;;;;11.62;100.00;101890.63;2094947;28;20539;-75
2023/01/07 05:15:58;;;;;;;19.88;14.20;;;;;;;11.61;100.00;101897.66;2086777;28;20045;-75
2023/01/07 05:17:20;;;;;;;17.85;13.93;;;;;;;11.60;100.00;101893.22;2092250;28;20044;-75
2023/01/07 05:18:42;;;;;;;17.50;13.10;;;;;;;11.58;100.00;101890.50;2086328;28;20055;-75
2023/01/07 05:20:06;;;;;;;17.15;13.10;;;;;;;11.56;100.00;101897.50;2083953;28;20041;-75
2023/01/07 05:21:30;;;;;;;16.55;12.32;;;;;;;11.53;100.00;101897.41;2095169;28;20055;-74
2023/01/07 05:22:51;;;;;;;17.75;12.77;;;;;;;11.49;100.00;101895.50;2087876;28;20103;-75
2023/01/07 05:24:14;;;;;;;;;;;;;;;11.41;100.00;101898.81;2092733;28;20047;-74
2023/01/07 05:25:39;;;;;;;17.52;13.68;;;;;;;11.39;100.00;101896.09;2089962;28;19920;-74
2023/01/07 05:27:00;;;;;;;19.10;12.85;;;;;;;11.37;100.00;101900.44;2094884;28;20556;-74
2023/01/07 05:28:22;;;;;;;18.80;13.45;;;;;;;11.38;100.00;101896.03;2086145;28;20040;-75
2023/01/07 05:29:45;;;;;;;20.30;14.27;;;;;;;11.38;100.00;101902.22;2094702;28;20049;-74
2023/01/07 05:31:06;;;;;;;19.80;13.85;;;;;;;11.39;100.00;101897.84;2094634;28;20074;-75
2023/01/07 05:32:29;;;;;;;18.95;14.10;;;;;;;11.40;100.00;101899.66;2094861;28;20072;-75
2023/01/07 05:33:51;;;;;;;20.17;14.32;;;;;;;11.40;100.00;101894.34;2086367;28;20119;-75
2023/01/07 05:35:14;;;;;;;19.10;14.73;;;;;;;11.39;100.00;101903.13;2086855;28;20075;-76
2023/01/07 05:36:36;;;;;;;18.65;13.73;;;;;;;11.39;100.00;101904.03;2095429;28;20617;-75
2023/01/07 05:37:58;;;;;;;18.73;14.25;;;;;;;11.38;100.00;101902.22;2089005;28;20045;-75
2023/01/07 05:39:21;;;;;;;21.63;14.50;;;;;;;11.37;100.00;101911.00;2100112;28;20058;-75
2023/01/07 05:40:47;;;;;;;25.83;16.55;;;;;;;11.40;100.00;101905.81;2088337;28;20073;-75
2023/01/07 05:42:10;;;;;;;23.52;16.52;;;;;;;11.42;100.00;101906.75;2077484;28;20148;-75
2023/01/07 05:43:32;;;;;;;20.63;15.63;;;;;;;11.48;100.00;101903.44;2081252;28;20053;-74
2023/01/07 05:44:53;;;;;;;19.08;13.35;;;;;;;11.49;100.00;101910.47;2091924;28;20102;-74
2023/01/07 05:46:16;;;;;;;20.52;14.73;;;;;;;11.47;100.00;101909.56;2100718;28;20052;-75
2023/01/07 05:47:38;;;;;;;17.55;13.13;;;;;;;11.46;100.00;101902.47;2085485;28;20137;-75
2023/01/07 05:49:01;;;;;;;17.90;13.55;;;;;;;11.46;100.00;101907.75;2092034;28;20056;-75
2023/01/07 05:50:23;;;;;;;19.65;14.05;;;;;;;11.45;100.00;101898.94;2088536;28;20059;-75
2023/01/07 05:51:46;;;;;;;20.77;14.60;;;;;;;11.46;100.00;101905.13;2094592;28;20528;-75
2023/01/07 05:53:07;;;;;;;17.85;13.40;;;;;;;11.47;100.00;101906.91;2088730;28;20041;-75
2023/01/07 05:54:30;;;;;;;19.15;14.32;;;;;;;11.45;100.00;101909.50;2083460;28;20096;-74
2023/01/07 05:55:58;;;;;;;20.40;15.35;;;;;;;11.49;100.00;101907.84;2091922;28;20098;-75
2023/01/07 05:57:20;;;;;;;23.98;17.25;;;;;;;11.49;100.00;101913.13;2094530;28;20078;-75
2023/01/07 05:58:42;;;;;;;20.00;15.13;;;;;;;11.51;100.00;101909.69;2085931;28;20543;-75
2023/01/07 06:00:06;;;;;;;18.98;14.43;;;;;;;11.56;100.00;101910.72;2083491;28;20048;-74
2023/01/07 06:01:34;;;;;;;21.52;16.15;;;;;;;11.62;100.00;101907.34;2087150;28;20057;-75
2023/01/07 06:02:56;;;;;;;22.10;16.95;;;;;;;11.68;100.00;101907.56;2094118;28;20072;-75
2023/01/07 06:04:19;;;;;;;26.30;19.58;;;;;;;11.73;100.00;101910.34;2080680;28;20421;-75
2023/01/07 06:05:41;;;;;;;28.08;22.63;;;;;;;11.77;100.00;101902.56;2096926;28;20055;-75
2023/01/07 06:07:03;;;;;;;28.98;21.92;;;;;;;11.84;100.00;101911.56;2088700;28;20405;-75
2023/01/07 06:08:26;;;;;;;31.95;25.33;;;;;;;11.89;100.00;101907.28;2075238;28;20053;-75
2023/01/07 06:09:48;;;;;;;31.98;24.23;;;;;;;11.94;100.00;101911.00;2091860;28;20052;-74
2023/01/07 06:11:11;;;;;;;29.15;22.42;;;;;;;12.00;100.00;101903.22;2088529;28;20056;-74
2023/01/07 06:12:34;;;;;;;30.77;23.95;;;;;;;12.03;100.00;101910.34;2091623;28;20036;-75
2023/01/07 06:13:56;;;;;;;32.40;25.65;;;;;;;12.05;100.00;101919.22;2087402;28;20045;-75
2023/01/07 06:15:19;;;;;;;37.20;29.65;;;;;;;12.04;100.00;101913.03;2084569;28;20103;-75
2023/01/07 06:16:41;;;;;;;32.85;27.45;;;;;;;12.03;100.00;101920.91;2091988;28;20056;-75
2023/01/07 06:18:04;;;;;;;33.67;25.92;;;;;;;12.01;100.00;101914.72;2086089;28;20045;-75
2023/01/07 06:19:27;;;;;;;33.45;25.92;;;;;;;12.01;100.00;101918.25;2099086;28;20079;-74
2023/01/07 06:20:49;;;;;;;34.58;28.27;;;;;;;12.03;100.00;101919.16;2084273;28;20036;-74
2023/01/07 06:22:12;;;;;;;33.95;28.15;;;;;;;12.05;100.00;101921.88;2086152;28;20048;-75
2023/01/07 06:23:34;;;;;;;36.08;29.52;;;;;;;12.08;100.00;101922.84;2085962;28;20051;-75
2023/01/07 06:24:55;;;;;;;37.22;29.67;;;;;;;12.11;100.00;101925.59;2099601;28;20079;-75
2023/01/07 06:26:19;;;;;;;38.20;30.58;;;;;;;12.15;100.00;101922.16;2097005;28;20044;-75